Terminal Aerodrome Forecast
Issued by NWS

Home | Current Version | Previous Version | Graphics & Text | Print | Product List | Glossary On
Versions: 1 2 3 4 5 6 7 8 9 10 11 12 13 14 15
204
FTUS43 KIWX 281125
TAFSBN
TAF
KSBN 281125Z 2812/2912 11014G20KT P6SM OVC015
      TEMPO 2812/2814 5SM -SHRA BR
     FM281700 09012G18KT P6SM VCSH OVC015
     FM290000 06008KT P6SM OVC015
     FM290800 02006KT P6SM OVC010=

USA.gov is the U.S. government's official web portal to all federal, state and local government web resources and services.